Observations for Trim Market St
| Time | AQI | Temp °C | Hum % | Pres Pa | CO μg/m³ | H₂S μg/m³ | NO μg/m³ | NO₂ μg/m³ | O₃ μg/m³ | SO₂ μg/m³ | PM1 μg/m³ | PM2.5 μg/m³ | PM10 μg/m³ |
|---|---|---|---|---|---|---|---|---|---|---|---|---|---|
| Friday 21 August 2026 | |||||||||||||
| 20:45 | 3 | 17.4 | 60 | 57,780 | 0.07 | 0 | 1.27 | 17.95 | 64.76 | 0 | 0.71 | 2.54 | 3.4 |
| 20:44 | 3 | 17.5 | 60 | 57,770 | 0.09 | 0 | 1.27 | 12.1 | 57.79 | 0 | 0 | 2.55 | 3.39 |
| 20:43 | 3 | 17.5 | 59 | 57,761 | 0.08 | 0 | 1.28 | 12.01 | 59.01 | 0 | 0 | 2.05 | 2.7 |
| 20:42 | 3 | 17.6 | 59 | 57,748 | 0.11 | 0 | 1.27 | 12.36 | 58.6 | 0 | 0 | 2.55 | 3.39 |
| 20:41 | 3 | 17.6 | 59 | 57,732 | 0.14 | 0 | 1.28 | 12.57 | 56.01 | 0 | 0 | 2.56 | 3.39 |
| 20:40 | 3 | 17.7 | 59 | 57,713 | 0.12 | 0 | 1.35 | 15.92 | 52.33 | 0 | 0.71 | 3.06 | 4.07 |
| 20:39 | 3 | 17.7 | 59 | 57,691 | 0.29 | 0 | 1.45 | 13.12 | 57.82 | 0 | 0 | 2.06 | 2.69 |
| 20:38 | 3 | 17.8 | 59 | 57,663 | 0.13 | 0 | 1.66 | 13.89 | 58.5 | 0 | 0.71 | 2.56 | 3.38 |
| 20:37 | 3 | 17.8 | 59 | 57,631 | 0.05 | 0 | 1.51 | 12.61 | 54.97 | 0 | 0.71 | 2.57 | 4.07 |
| 20:36 | 3 | 17.9 | 59 | 57,589 | 0.09 | 0 | 1.55 | 16.02 | 64.82 | 0 | 0.71 | 2.58 | 4.06 |
| 20:35 | 3 | 17.9 | 59 | 57,541 | 0.12 | 0 | 1.49 | 30.7 | 36.01 | 0 | 0 | 1.58 | 1.98 |
| 20:34 | 3 | 18 | 59 | 57,486 | 0.03 | 0 | 1.34 | 12.29 | 59.27 | 0 | 0.71 | 2.59 | 3.36 |
| 20:32 | 3 | 18.1 | 58 | 57,431 | 0.03 | 0 | 2.12 | 13.17 | 60.42 | 0 | 0 | 2.09 | 2.66 |
| 20:31 | 3 | 18.1 | 58 | 57,377 | 0.05 | 0 | 3.51 | 12.06 | 59.78 | 0 | 0 | 2.1 | 2.65 |
| 20:30 | 3 | 18.2 | 58 | 57,315 | 0.19 | 0 | 3.68 | 24.88 | 61.32 | 0 | 0 | 2.1 | 2.65 |
| 20:29 | 3 | 18.2 | 58 | 57,252 | 0.45 | 0 | 3.56 | 34.07 | 32.29 | 0 | 0.71 | 2.61 | 4.74 |
| 20:28 | 3 | 18.3 | 58 | 57,198 | 0.27 | 0 | 2.93 | 30.77 | 41.44 | 0 | 1.43 | 3.12 | 4.74 |
| 20:27 | 3 | 18.3 | 58 | 57,138 | 0.52 | 0 | 3.59 | 55.94 | 16.81 | 0 | 1.43 | 3.13 | 4.03 |
| 20:26 | 3 | 18.4 | 58 | 57,065 | 0.13 | 0 | 3.62 | 22.45 | 60.34 | 0 | 0 | 2.12 | 4.03 |
| 20:24 | 3 | 18.4 | 58 | 56,924 | 0.13 | 0 | 3.82 | 18.19 | 58.07 | 0 | 0 | 2.13 | 4.02 |